createdAt,value
2022-10-26T00:00:25.884Z,27.52
2022-10-26T00:03:13.326Z,30.05
2022-10-26T00:05:40.293Z,28.20
2022-10-26T00:08:07.867Z,29.98
2022-10-26T00:10:38.671Z,30.50
2022-10-26T00:13:06.618Z,32.20
2022-10-26T00:15:33.482Z,29.77
2022-10-26T00:18:00.543Z,30.60
2022-10-26T00:20:27.399Z,27.95
2022-10-26T00:22:54.599Z,28.63
2022-10-26T00:25:21.467Z,30.25
2022-10-26T00:27:48.932Z,29.38
2022-10-26T00:30:16.120Z,31.58
2022-10-26T00:32:43.284Z,30.67
2022-10-26T00:35:21.327Z,29.20
2022-10-26T00:37:56.180Z,26.10
2022-10-26T00:40:27.890Z,30.85
2022-10-26T00:42:55.014Z,29.45
2022-10-26T00:45:27.228Z,34.67
2022-10-26T00:48:02.163Z,30.02
2022-10-26T00:50:32.353Z,38.45
2022-10-26T00:53:00.875Z,30.15
2022-10-26T00:55:33.407Z,34.60
2022-10-26T00:58:02.612Z,32.30
2022-10-26T01:00:29.544Z,34.05
2022-10-26T01:02:58.399Z,37.50
2022-10-26T01:05:26.021Z,38.88
2022-10-26T01:07:54.124Z,36.33
2022-10-26T01:10:21.222Z,40.60
2022-10-26T01:12:48.484Z,35.70
2022-10-26T01:15:15.361Z,45.72
2022-10-26T01:17:51.793Z,38.95
2022-10-26T01:20:21.664Z,39.10
2022-10-26T01:22:55.051Z,37.22
2022-10-26T01:25:24.669Z,40.15
2022-10-26T01:27:52.949Z,40.58
2022-10-26T01:30:27.255Z,42.85
2022-10-26T01:33:19.085Z,39.45
2022-10-26T01:35:49.031Z,41.22
2022-10-26T01:38:29.492Z,40.20
2022-10-26T01:41:00.257Z,42.50
2022-10-26T01:43:31.748Z,46.40
2022-10-26T01:45:58.683Z,40.95
2022-10-26T01:48:26.538Z,47.30
2022-10-26T01:50:54.075Z,46.55
2022-10-26T01:53:21.271Z,47.65
2022-10-26T01:55:49.686Z,42.83
2022-10-26T01:58:58.732Z,42.22
2022-10-26T02:01:53.431Z,44.55
2022-10-26T02:04:39.352Z,39.55
2022-10-26T02:07:09.149Z,41.90
2022-10-26T02:09:39.268Z,39.75
2022-10-26T02:12:14.289Z,35.88
2022-10-26T02:14:51.507Z,35.88
2022-10-26T02:17:48.720Z,36.83
2022-10-26T02:20:25.483Z,42.03
2022-10-26T02:22:53.707Z,38.15
2022-10-26T02:25:24.147Z,36.80
2022-10-26T02:27:55.309Z,37.25
2022-10-26T02:30:22.624Z,38.17
2022-10-26T02:32:52.299Z,39.42
2022-10-26T02:35:22.506Z,37.83
2022-10-26T02:37:51.227Z,41.08
2022-10-26T02:40:22.582Z,46.53
2022-10-26T02:42:50.239Z,43.40
2022-10-26T02:45:21.375Z,44.35
2022-10-26T02:47:48.476Z,40.15
2022-10-26T02:50:16.911Z,45.00
2022-10-26T02:52:52.109Z,45.83
2022-10-26T02:55:23.597Z,50.17
2022-10-26T02:57:55.150Z,45.38
2022-10-26T03:00:22.209Z,50.83
2022-10-26T03:02:54.957Z,46.58
2022-10-26T03:05:29.935Z,42.13
2022-10-26T03:07:57.994Z,51.72
2022-10-26T03:10:25.655Z,45.65
2022-10-26T03:12:53.435Z,46.97
2022-10-26T03:15:21.188Z,49.90
2022-10-26T03:17:48.283Z,44.38
2022-10-26T03:20:16.007Z,54.13
2022-10-26T03:22:42.963Z,53.55
2022-10-26T03:25:10.108Z,47.95
2022-10-26T03:27:37.974Z,46.20
2022-10-26T03:30:05.709Z,49.78
2022-10-26T03:32:32.595Z,50.90
2022-10-26T03:34:59.713Z,50.55
2022-10-26T03:37:27.005Z,60.72
2022-10-26T03:39:54.187Z,63.25
2022-10-26T03:42:21.036Z,51.70
2022-10-26T03:44:48.393Z,54.45
2022-10-26T03:47:15.266Z,54.05
2022-10-26T03:49:42.365Z,55.05
2022-10-26T03:52:09.286Z,49.50
2022-10-26T03:54:36.524Z,51.78
2022-10-26T03:57:03.430Z,55.72
2022-10-26T03:59:30.486Z,57.35
2022-10-26T04:01:58.021Z,47.90
2022-10-26T04:04:25.623Z,52.22
2022-10-26T04:06:52.634Z,46.53
2022-10-26T04:09:19.732Z,48.50
2022-10-26T04:11:46.777Z,50.05
2022-10-26T04:14:13.868Z,51.25
2022-10-26T04:16:40.754Z,50.00
2022-10-26T04:19:07.858Z,51.13
2022-10-26T04:21:35.498Z,46.25
2022-10-26T04:24:02.825Z,39.55
2022-10-26T04:26:29.672Z,44.47
2022-10-26T04:28:57.135Z,42.95
2022-10-26T04:31:23.985Z,45.40
2022-10-26T04:33:51.039Z,38.75
2022-10-26T04:36:17.901Z,39.63
2022-10-26T04:38:45.097Z,40.08
2022-10-26T04:41:12.031Z,39.78
2022-10-26T04:43:39.084Z,38.10
2022-10-26T04:46:06.074Z,40.13
2022-10-26T04:48:33.449Z,38.53
2022-10-26T04:51:00.851Z,44.20
2022-10-26T04:53:28.435Z,44.55
2022-10-26T04:55:59.356Z,43.47
2022-10-26T04:58:27.606Z,39.58
2022-10-26T05:00:54.687Z,41.30
2022-10-26T05:03:22.345Z,43.20
2022-10-26T05:05:49.257Z,47.65
2022-10-26T05:08:16.750Z,48.25
2022-10-26T05:10:47.762Z,47.85
2022-10-26T05:13:14.979Z,39.80
2022-10-26T05:15:41.911Z,43.22
2022-10-26T05:18:09.388Z,43.45
2022-10-26T05:20:37.072Z,45.33
2022-10-26T05:23:06.085Z,45.53
2022-10-26T05:25:35.953Z,42.35
2022-10-26T05:28:05.400Z,45.45
2022-10-26T05:30:32.336Z,47.20
2022-10-26T05:33:03.195Z,45.13
2022-10-26T05:35:30.598Z,41.72
2022-10-26T05:37:58.275Z,47.80
2022-10-26T05:40:25.517Z,41.47
2022-10-26T05:42:52.999Z,41.67
2022-10-26T05:45:20.328Z,44.97
2022-10-26T05:47:47.801Z,43.83
2022-10-26T05:50:14.933Z,46.15
2022-10-26T05:52:43.802Z,45.88
2022-10-26T05:55:15.993Z,53.90
2022-10-26T05:57:43.759Z,47.00
2022-10-26T06:00:17.289Z,47.28
2022-10-26T06:03:22.636Z,53.67
2022-10-26T06:05:56.329Z,44.97
2022-10-26T06:08:25.908Z,44.13
2022-10-26T06:10:54.474Z,44.42
2022-10-26T06:13:22.732Z,46.40
2022-10-26T06:16:00.173Z,48.65
2022-10-26T06:18:39.032Z,43.42
2022-10-26T06:21:33.253Z,46.35
2022-10-26T06:24:05.327Z,46.58
2022-10-26T06:26:46.697Z,45.15
2022-10-26T06:29:25.142Z,38.92
2022-10-26T06:31:52.072Z,48.47
2022-10-26T06:34:25.300Z,43.60
2022-10-26T06:39:26.174Z,44.35
2022-10-26T06:41:53.237Z,41.33
2022-10-26T06:44:26.014Z,44.40
2022-10-26T06:47:31.347Z,47.30
2022-10-26T06:50:04.040Z,47.92
2022-10-26T06:52:36.102Z,46.20
2022-10-26T06:55:05.190Z,44.40
2022-10-26T06:57:36.725Z,48.25
2022-10-26T07:00:13.830Z,44.92
2022-10-26T07:02:40.756Z,49.35
2022-10-26T07:05:12.839Z,57.25
2022-10-26T07:07:44.991Z,48.53
2022-10-26T07:10:13.954Z,53.45
2022-10-26T07:12:41.000Z,55.72
2022-10-26T07:17:44.748Z,59.95
2022-10-26T07:20:12.937Z,56.63
2022-10-26T07:22:39.983Z,58.97
2022-10-26T07:25:08.126Z,58.33
2022-10-26T07:27:35.246Z,53.78
2022-10-26T07:30:02.706Z,57.85
2022-10-26T07:32:30.453Z,54.40
2022-10-26T07:34:57.535Z,53.28
2022-10-26T07:37:24.484Z,46.38
2022-10-26T07:39:51.595Z,47.40
2022-10-26T07:42:18.444Z,46.95
2022-10-26T07:44:45.567Z,45.30
2022-10-26T07:47:12.454Z,46.92
2022-10-26T07:49:39.976Z,43.03
2022-10-26T07:52:06.980Z,38.05
2022-10-26T07:54:34.007Z,36.03
2022-10-26T07:57:01.123Z,35.45
2022-10-26T07:59:28.401Z,35.83
2022-10-26T08:01:55.323Z,35.30
2022-10-26T08:04:22.736Z,41.78
2022-10-26T08:06:49.669Z,37.13
2022-10-26T08:09:16.726Z,37.65
2022-10-26T08:11:43.591Z,37.67
2022-10-26T08:14:11.122Z,40.55
2022-10-26T08:16:40.525Z,33.05
2022-10-26T08:19:07.725Z,30.73
2022-10-26T08:21:39.510Z,34.63
2022-10-26T08:24:08.332Z,32.40
2022-10-26T08:26:35.144Z,33.63
2022-10-26T08:29:02.244Z,34.92
2022-10-26T08:31:29.235Z,34.90
2022-10-26T08:33:56.371Z,28.65
2022-10-26T08:36:24.696Z,27.75
2022-10-26T08:38:52.720Z,35.10
2022-10-26T08:41:32.218Z,27.20
2022-10-26T08:44:03.866Z,30.48
2022-10-26T08:46:36.628Z,28.58
2022-10-26T08:49:39.039Z,27.30
2022-10-26T08:52:06.635Z,32.05
2022-10-26T08:54:48.127Z,27.60
2022-10-26T08:57:29.777Z,28.02
2022-10-26T09:00:02.912Z,29.25
2022-10-26T09:02:30.777Z,29.00
2022-10-26T09:05:01.509Z,27.00
2022-10-26T09:07:40.808Z,25.45
2022-10-26T09:10:36.357Z,28.58
2022-10-26T09:13:24.793Z,27.42
2022-10-26T09:16:00.453Z,27.98
2022-10-26T09:18:39.346Z,27.65
2022-10-26T09:21:27.070Z,25.10
2022-10-26T09:24:06.015Z,28.88
2022-10-26T09:26:39.248Z,31.08
2022-10-26T09:29:12.308Z,31.70
2022-10-26T09:31:43.518Z,29.98
2022-10-26T09:34:41.605Z,26.50
2022-10-26T09:37:16.229Z,30.40
2022-10-26T09:39:58.604Z,26.10
2022-10-26T09:42:48.640Z,25.20
2022-10-26T09:45:24.682Z,29.58
2022-10-26T09:47:54.317Z,20.25
2022-10-26T09:50:25.533Z,21.23
2022-10-26T09:52:52.956Z,18.15
2022-10-26T09:55:21.940Z,15.40
2022-10-26T09:57:52.027Z,14.48
2022-10-26T10:00:21.232Z,10.98
2022-10-26T10:02:54.655Z,11.57
2022-10-26T10:05:50.193Z,11.85
2022-10-26T10:08:25.518Z,12.73
2022-10-26T10:10:57.335Z,18.17
2022-10-26T10:13:26.912Z,15.18
2022-10-26T10:15:55.827Z,14.38
2022-10-26T10:18:23.740Z,14.25
2022-10-26T10:20:59.944Z,13.00
2022-10-26T10:23:30.816Z,15.88
2022-10-26T10:26:13.448Z,13.88
2022-10-26T10:28:42.500Z,14.65
2022-10-26T10:31:23.102Z,15.05
2022-10-26T10:33:50.219Z,15.18
2022-10-26T10:36:19.987Z,17.05
2022-10-26T10:38:49.050Z,16.95
2022-10-26T10:41:20.418Z,18.17
2022-10-26T10:43:50.296Z,18.80
2022-10-26T10:46:23.474Z,20.08
2022-10-26T10:49:03.833Z,18.92
2022-10-26T10:51:36.799Z,19.65
2022-10-26T10:54:05.325Z,17.52
2022-10-26T10:56:34.497Z,15.32
2022-10-26T10:59:20.264Z,16.98
2022-10-26T11:02:06.086Z,14.13
2022-10-26T11:04:39.446Z,20.08
2022-10-26T11:07:07.470Z,13.90
2022-10-26T11:09:36.861Z,16.45
2022-10-26T11:12:10.413Z,16.98
2022-10-26T11:14:48.887Z,15.75
2022-10-26T11:17:22.581Z,15.45
2022-10-26T11:20:21.928Z,17.88
2022-10-26T11:22:51.945Z,16.50
2022-10-26T11:25:24.516Z,13.88
2022-10-26T11:28:06.378Z,18.90
2022-10-26T11:30:34.798Z,19.92
2022-10-26T11:33:09.550Z,16.33
2022-10-26T11:35:55.190Z,20.65
2022-10-26T11:38:46.572Z,14.88
2022-10-26T11:41:36.635Z,17.50
2022-10-26T11:44:13.776Z,15.73
2022-10-26T11:46:43.523Z,16.70
2022-10-26T11:49:28.976Z,15.45
2022-10-26T11:52:00.492Z,20.08
2022-10-26T11:54:41.611Z,13.90
2022-10-26T11:57:10.585Z,15.20
2022-10-26T11:59:42.196Z,14.43
2022-10-26T12:02:18.735Z,14.68
2022-10-26T12:04:50.299Z,16.92
2022-10-26T12:07:24.355Z,16.77
2022-10-26T12:09:51.612Z,14.10
2022-10-26T12:12:24.736Z,13.55
2022-10-26T12:14:59.040Z,14.95
2022-10-26T12:17:36.124Z,15.70
2022-10-26T12:20:33.972Z,12.27
2022-10-26T12:23:01.116Z,13.15
2022-10-26T12:25:28.003Z,12.15
2022-10-26T12:27:56.643Z,12.50
2022-10-26T12:30:37.092Z,13.77
2022-10-26T12:33:30.393Z,16.50
2022-10-26T12:35:58.088Z,14.70
2022-10-26T12:38:27.927Z,16.13
2022-10-26T12:41:12.043Z,11.85
2022-10-26T12:43:41.036Z,12.73
2022-10-26T12:46:14.027Z,13.80
2022-10-26T12:48:51.337Z,13.73
2022-10-26T12:51:26.867Z,12.95
2022-10-26T12:54:30.717Z,14.85
2022-10-26T12:57:06.445Z,15.00
2022-10-26T13:00:05.233Z,13.38
2022-10-26T13:02:51.375Z,13.73
2022-10-26T13:05:30.743Z,12.65
2022-10-26T13:08:06.684Z,13.95
2022-10-26T13:10:34.354Z,14.60
2022-10-26T13:13:05.321Z,14.38
2022-10-26T13:15:39.802Z,16.08
2022-10-26T13:18:12.917Z,13.15
2022-10-26T13:21:09.088Z,13.05
2022-10-26T13:23:38.634Z,11.70
2022-10-26T13:26:05.812Z,11.95
2022-10-26T13:28:38.560Z,14.27
2022-10-26T13:31:23.960Z,16.38
2022-10-26T13:33:52.317Z,13.88
2022-10-26T13:36:31.506Z,13.45
2022-10-26T13:39:01.165Z,13.50
2022-10-26T13:41:35.041Z,11.82
2022-10-26T13:44:06.006Z,15.85
2022-10-26T13:46:37.290Z,14.55
2022-10-26T13:49:09.088Z,13.02
2022-10-26T13:51:48.300Z,14.70
2022-10-26T13:54:22.005Z,12.05
2022-10-26T13:57:08.095Z,11.50
2022-10-26T13:59:39.038Z,15.10
2022-10-26T14:02:14.565Z,13.35
2022-10-26T14:04:41.441Z,16.02
2022-10-26T14:07:16.688Z,15.48
2022-10-26T14:09:43.617Z,17.65
2022-10-26T14:12:11.058Z,15.25
2022-10-26T14:14:38.849Z,14.52
2022-10-26T14:17:06.275Z,13.95
2022-10-26T14:19:35.458Z,14.13
2022-10-26T14:22:03.208Z,14.63
2022-10-26T14:24:45.710Z,15.13
2022-10-26T14:27:19.037Z,19.23
2022-10-26T14:29:54.179Z,14.43
2022-10-26T14:32:33.921Z,18.95
2022-10-26T14:35:00.861Z,16.13
2022-10-26T14:37:27.903Z,22.10
2022-10-26T14:39:54.953Z,20.40
2022-10-26T14:42:22.019Z,16.45
2022-10-26T14:44:48.901Z,17.88
2022-10-26T14:47:24.960Z,19.55
2022-10-26T14:49:52.099Z,17.55
2022-10-26T14:52:49.087Z,15.30
2022-10-26T14:55:16.838Z,30.83
2022-10-26T14:57:45.777Z,21.08
2022-10-26T15:00:24.728Z,29.42
2022-10-26T15:02:56.125Z,31.60
2022-10-26T15:05:26.139Z,27.95
2022-10-26T15:07:53.760Z,48.28
2022-10-26T15:10:38.899Z,50.30
2022-10-26T15:13:31.428Z,34.25
2022-10-26T15:16:08.276Z,19.05
2022-10-26T15:18:37.050Z,25.17
2022-10-26T15:21:15.551Z,24.55
2022-10-26T15:23:42.937Z,27.60
2022-10-26T15:26:11.204Z,24.65
2022-10-26T15:28:43.370Z,64.57
2022-10-26T15:31:10.177Z,27.40
2022-10-26T15:33:42.763Z,68.35
2022-10-26T15:36:14.549Z,46.08
2022-10-26T15:38:42.288Z,72.72
2022-10-26T15:41:14.540Z,95.85
2022-10-26T15:43:41.418Z,162.07
2022-10-26T15:46:08.801Z,53.35
2022-10-26T15:48:36.202Z,66.35
2022-10-26T15:51:03.447Z,58.20
2022-10-26T15:53:30.587Z,79.65
2022-10-26T15:55:59.502Z,33.05
2022-10-26T15:58:28.056Z,42.50
2022-10-26T16:00:55.202Z,34.53
2022-10-26T16:03:25.462Z,25.70
2022-10-26T16:05:58.796Z,35.50
2022-10-26T16:08:27.924Z,41.15
2022-10-26T16:10:55.043Z,104.65
2022-10-26T16:13:21.905Z,77.93
2022-10-26T16:15:49.651Z,67.38
2022-10-26T16:18:16.559Z,40.95
2022-10-26T16:20:45.998Z,34.83
2022-10-26T16:23:13.153Z,34.85
2022-10-26T16:25:45.722Z,35.70
2022-10-26T16:28:14.899Z,31.63
2022-10-26T16:30:42.587Z,33.58
2022-10-26T16:33:09.484Z,34.45
2022-10-26T16:35:36.571Z,28.58
2022-10-26T16:38:03.543Z,31.25
2022-10-26T16:40:30.709Z,31.50
2022-10-26T16:42:57.564Z,53.42
2022-10-26T16:45:24.645Z,38.15
2022-10-26T16:47:51.793Z,29.35
2022-10-26T16:50:21.252Z,26.17
2022-10-26T16:52:48.154Z,37.45
2022-10-26T16:55:15.627Z,34.10
2022-10-26T16:57:42.447Z,44.65
2022-10-26T17:00:10.111Z,42.85
2022-10-26T17:02:37.116Z,43.40
2022-10-26T17:05:07.261Z,59.03
2022-10-26T17:07:35.232Z,49.65
2022-10-26T17:10:02.462Z,53.17
2022-10-26T17:12:29.764Z,93.57
2022-10-26T17:14:58.912Z,48.20
2022-10-26T17:17:26.172Z,41.85
2022-10-26T17:19:53.957Z,34.95
2022-10-26T17:22:21.085Z,45.65
2022-10-26T17:24:48.599Z,44.63
2022-10-26T17:27:17.464Z,38.55
2022-10-26T17:29:44.865Z,40.15
2022-10-26T17:32:14.395Z,35.95
2022-10-26T17:34:42.650Z,34.40
2022-10-26T17:37:10.247Z,40.13
2022-10-26T17:39:37.895Z,37.35
2022-10-26T17:42:05.362Z,36.10
2022-10-26T17:44:35.266Z,33.28
2022-10-26T17:47:02.723Z,36.42
2022-10-26T17:49:35.053Z,41.55
2022-10-26T17:52:06.034Z,35.10
2022-10-26T17:54:33.804Z,39.10
2022-10-26T17:57:01.285Z,36.55
2022-10-26T17:59:29.325Z,36.55
2022-10-26T18:01:57.037Z,39.08
2022-10-26T18:04:25.081Z,45.65
2022-10-26T18:06:52.618Z,50.95
2022-10-26T18:09:20.594Z,44.15
2022-10-26T18:11:49.633Z,40.67
2022-10-26T18:14:20.016Z,39.40
2022-10-26T18:16:47.597Z,44.03
2022-10-26T18:19:15.215Z,44.35
2022-10-26T18:21:42.914Z,38.72
2022-10-26T18:24:10.869Z,43.17
2022-10-26T18:26:38.179Z,43.53
2022-10-26T18:29:06.754Z,53.15
2022-10-26T18:31:37.367Z,44.30
2022-10-26T18:34:06.487Z,50.28
2022-10-26T18:36:34.321Z,52.42
2022-10-26T18:39:02.222Z,52.00
2022-10-26T18:41:29.807Z,47.60
2022-10-26T18:44:02.318Z,45.53
2022-10-26T18:46:31.467Z,44.85
2022-10-26T18:49:00.916Z,43.92
2022-10-26T18:51:33.540Z,43.30
2022-10-26T18:54:02.646Z,43.30
2022-10-26T18:56:30.585Z,44.08
2022-10-26T18:58:59.592Z,37.85
2022-10-26T19:01:29.596Z,34.97
2022-10-26T19:04:08.187Z,40.40
2022-10-26T19:06:40.335Z,45.90
2022-10-26T19:09:08.200Z,45.72
2022-10-26T19:11:35.488Z,48.97
2022-10-26T19:14:03.094Z,54.63
2022-10-26T19:16:45.109Z,47.70
2022-10-26T19:19:14.933Z,47.08
2022-10-26T19:21:41.892Z,43.17
2022-10-26T19:24:20.581Z,49.22
2022-10-26T19:26:48.184Z,45.30
2022-10-26T19:29:16.690Z,47.05
2022-10-26T19:31:48.100Z,54.92
2022-10-26T19:34:18.063Z,34.45
2022-10-26T19:36:46.359Z,47.15
2022-10-26T19:39:15.256Z,66.68
2022-10-26T19:41:43.115Z,55.20
2022-10-26T19:44:11.760Z,26.88
2022-10-26T19:46:39.603Z,31.25
2022-10-26T19:49:06.740Z,40.35
2022-10-26T19:51:33.821Z,41.17
2022-10-26T19:54:03.826Z,53.20
2022-10-26T19:56:32.364Z,120.53
2022-10-26T19:58:59.816Z,158.70
2022-10-26T20:01:26.831Z,484.80
2022-10-26T20:03:54.302Z,641.03
2022-10-26T20:06:21.240Z,573.80
2022-10-26T20:08:49.056Z,1083.38
2022-10-26T20:11:17.211Z,91.32
2022-10-26T20:13:45.622Z,61.25
2022-10-26T20:16:13.910Z,135.00
2022-10-26T20:18:44.143Z,65.97
2022-10-26T20:21:16.651Z,61.63
2022-10-26T20:23:44.481Z,42.92
2022-10-26T20:26:18.319Z,49.72
2022-10-26T20:28:48.344Z,51.72
2022-10-26T20:31:15.467Z,46.83
2022-10-26T20:33:42.821Z,45.53
2022-10-26T20:36:09.775Z,55.38
2022-10-26T20:38:37.118Z,48.13
2022-10-26T20:41:07.709Z,37.15
2022-10-26T20:43:39.021Z,71.00
2022-10-26T20:46:26.838Z,65.05
2022-10-26T20:48:54.849Z,46.85
2022-10-26T20:51:51.989Z,45.67
2022-10-26T20:54:33.778Z,44.38
2022-10-26T20:57:02.453Z,41.65
2022-10-26T20:59:40.191Z,44.08
2022-10-26T21:02:10.379Z,40.38
2022-10-26T21:04:37.627Z,41.17
2022-10-26T21:07:04.490Z,41.20
2022-10-26T21:09:34.250Z,46.55
2022-10-26T21:12:04.122Z,54.97
2022-10-26T21:14:31.250Z,47.83
2022-10-26T21:16:58.069Z,45.50
2022-10-26T21:19:25.172Z,47.55
2022-10-26T21:21:52.012Z,36.38
2022-10-26T21:24:19.049Z,79.47
2022-10-26T21:26:45.909Z,43.65
2022-10-26T21:29:13.070Z,42.30
2022-10-26T21:31:40.015Z,44.17
2022-10-26T21:34:07.501Z,48.38
2022-10-26T21:36:35.037Z,46.03
2022-10-26T21:39:02.269Z,51.95
2022-10-26T21:41:29.490Z,56.28
2022-10-26T21:44:03.656Z,47.63
2022-10-26T21:46:37.243Z,44.58
2022-10-26T21:49:05.074Z,47.03
2022-10-26T21:51:31.977Z,40.20
2022-10-26T21:53:59.298Z,37.78
2022-10-26T21:56:26.209Z,41.70
2022-10-26T21:58:53.452Z,41.78
2022-10-26T22:01:22.133Z,41.65
2022-10-26T22:03:49.784Z,81.85
2022-10-26T22:06:21.421Z,83.63
2022-10-26T22:08:49.392Z,78.53
2022-10-26T22:11:21.662Z,80.07
2022-10-26T22:13:49.650Z,66.30
2022-10-26T22:16:22.037Z,63.78
2022-10-26T22:18:50.638Z,71.55
2022-10-26T22:21:18.944Z,140.63
2022-10-26T22:23:46.398Z,150.30
2022-10-26T22:26:15.882Z,62.35
2022-10-26T22:28:44.801Z,51.60
2022-10-26T22:31:17.030Z,49.58
2022-10-26T22:33:44.527Z,51.17
2022-10-26T22:36:14.526Z,49.88
2022-10-26T22:38:42.272Z,50.40
2022-10-26T22:41:09.888Z,60.00
2022-10-26T22:43:37.341Z,63.35
2022-10-26T22:46:15.224Z,75.55
2022-10-26T22:48:45.375Z,97.95
2022-10-26T22:51:19.790Z,75.22
2022-10-26T22:53:51.532Z,81.47
2022-10-26T22:56:18.790Z,73.03
2022-10-26T22:58:45.941Z,62.42
2022-10-26T23:01:17.552Z,55.05
2022-10-26T23:03:44.979Z,53.75
2022-10-26T23:06:14.550Z,46.80
2022-10-26T23:08:42.204Z,48.42
2022-10-26T23:11:13.433Z,47.20
2022-10-26T23:13:40.776Z,48.53
2022-10-26T23:16:20.335Z,60.15
2022-10-26T23:18:48.371Z,49.55
2022-10-26T23:21:16.349Z,114.32
2022-10-26T23:23:43.613Z,174.88
2022-10-26T23:26:15.392Z,69.82
2022-10-26T23:28:43.121Z,75.95
2022-10-26T23:31:15.142Z,69.60
2022-10-26T23:33:42.287Z,88.30
2022-10-26T23:36:09.207Z,74.43
2022-10-26T23:38:36.586Z,61.75
2022-10-26T23:41:03.598Z,56.92
2022-10-26T23:43:30.699Z,52.38
2022-10-26T23:45:57.670Z,58.88
2022-10-26T23:48:24.996Z,52.67
2022-10-26T23:50:52.827Z,54.42
2022-10-26T23:53:22.667Z,57.85
2022-10-26T23:55:49.993Z,49.00
2022-10-26T23:58:18.107Z,51.05
